• Join FlightAware (Why Join?)
  • Login
  • US Flag 
02:27AM EDT


 

Airport Tracker/Info


-or-


 

Live Flight TrackerFlight Track Log ✈ EJA727 ✈ 05-May-2013 ✈ KFCI - KLEX

Flight Track Log - Related Links

Times and Time Zones

All times are in EDT time to prevent confusion due to time zone crossing. See the EJA727 flight status page for this flight to view local times or setup timezone preferences in your user account.

Time Position Orientation Groundspeed Altitude Reporting Facility
EDT Latitude Longitude Course Direction KTS MPH feet Rate Location/Type
05:51PM 37.3500 -77.5667 267° West 249 287 2,800  Level Potomac TRACON
05:52PM 37.3464 -77.6506 267° West 273 314 4,800 1,920 Climbing Washington Center
05:53PM 37.3364 -77.7494 263° West 284 327 6,800 1,980 Climbing Washington Center
05:54PM 37.3283 -77.8458 264° West 284 327 8,800 1,800 Climbing Washington Center
05:55PM 37.3181 -77.9475 263° West 292 336 10,500 2,160 Climbing Washington Center
05:56PM 37.3069 -78.0750 264° West 329 379 13,100 2,520 Climbing Washington Center
05:58PM 37.2889 -78.3356 265° West 360 414 18,100 1,680 Climbing Washington Center
06:00PM 37.3452 -78.5500 North  Level FlightAware Approximate
06:01PM 37.4097 -78.7633 North 464 534 21,800  Level Washington Center
06:02PM 37.4556 -78.9222 290° West 484 557 22,700 900 Climbing Washington Center
06:03PM 37.5031 -79.0842 290° West 490 564 23,700 1,020 Climbing Washington Center
06:04PM 37.5539 -79.2619 290° West 495 570 24,800 1,080 Climbing Washington Center
06:05PM 37.5989 -79.4267 289° West 495 570 25,900 1,080 Climbing Washington Center
06:06PM 37.6436 -79.5889 289° West 495 570 27,000 1,080 Climbing Washington Center
06:07PM 37.6903 -79.7542 290° West 489 563 28,100 960 Climbing Washington Center
06:08PM 37.7328 -79.9086 289° West 506 582 28,900 900 Climbing Washington Center
06:10PM 37.8256 -80.2458 289° West 493 567 31,000 960 Climbing Indianapolis Center
06:11PM 37.8672 -80.4308 286° West 468 539 32,000 480 Climbing Indianapolis Center
06:12PM 37.8747 -80.5786 274° West 453 521 32,000  Level Indianapolis Center
06:13PM 37.8842 -80.7392 274° West 455 524 32,000  Level Indianapolis Center
06:14PM 37.8942 -80.9086 274° West 476 548 32,000  Level Indianapolis Center
06:16PM 37.9131 -81.2839 274° West 485 558 32,000  Level Indianapolis Center
06:17PM 37.9228 -81.4533 274° West 481 554 32,000  Level Indianapolis Center
06:18PM 37.9308 -81.6256 273° West 486 559 32,000 -240 Level Indianapolis Center
06:19PM 37.9389 -81.7986 273° West 489 563 31,600 -720 Descending Indianapolis Center
06:20PM 37.9467 -81.9689 273° West 483 556 30,600 -1,020 Descending Indianapolis Center
06:21PM 37.9544 -82.1389 273° West 480 552 29,500 -1,020 Descending Indianapolis Center
06:22PM 37.9619 -82.3200 273° West 479 551 28,500 -1,200 Descending Indianapolis Center
06:23PM 37.9686 -82.4869 273° West 477 549 27,100 -1,500 Descending Indianapolis Center
06:24PM 37.9758 -82.6803 273° West 472 543 25,500 -1,500 Descending Indianapolis Center
06:25PM 37.9825 -82.8408 273° West 460 529 24,100 -1,380 Descending Indianapolis Center
06:26PM 37.9889 -83.0014 273° West 458 527 22,700 -1,500 Descending Indianapolis Center
06:27PM 37.9944 -83.1592 273° West 452 520 21,100 -1,980 Descending Indianapolis Center
06:29PM 38.0003 -83.3328 272° West 428 493 18,700 -2,100 Descending Indianapolis Center
06:30PM 38.0047 -83.4725 272° West 405 466 16,800 -1,980 Descending Indianapolis Center
06:31PM 38.0086 -83.6100 272° West 392 451 14,700 -2,040 Descending Indianapolis Center
06:32PM 38.0119 -83.7414 272° West 380 437 12,700 -1,800 Descending Indianapolis Center
06:33PM 38.0172 -83.8681 273° West 363 418 11,100 -960 Descending Indianapolis Center
06:34PM 38.0208 -83.9911 272° West 353 406 10,800 -540 Descending Indianapolis Center
06:35PM 38.0228 -84.1378 271° West 358 412 10,000 -540 Descending Indianapolis Center
06:36PM 38.0044 -84.2472 258° West 318 366 9,700 -900 Descending Indianapolis Center
06:37PM 37.9842 -84.3458 255° West 297 342 8,200 -1,440 Descending Indianapolis Center
06:38PM 37.9500 -84.4342 244° Southwest 281 323 6,800 -1,500 Descending Indianapolis Center
06:39PM 37.9167 -84.5158 243° Southwest 267 307 5,100 -1,800 Descending Indianapolis Center
06:40PM 37.8789 -84.6089 243° Southwest 259 298 3,100 -1,020 Descending Indianapolis Center
06:41PM 37.8497 -84.6839 244° Southwest 251 289 3,000 -60 Descending Indianapolis Center
06:42PM 37.8864 -84.7417 309° West 223 257 3,000 -300 Level Indianapolis Center
06:43PM 37.9325 -84.7256 15° North 187 215 2,500 -300 Descending Indianapolis Center
06:44PM 37.9650 -84.6853 44° Northeast 174 200 2,500 -180 Level Indianapolis Center
06:45PM 37.9989 -84.6464 42° Northeast 166 191 2,200 -300 Descending Indianapolis Center